Time;durP1;ratioP1;P1;durP2;ratioP2;P2;SDS_P1;SDS_P2;PMS_P1;PMS_P2;Temp;Humidity;BMP_temperature;BMP_pressure;BME280_temperature;BME280_humidity;BME280_pressure;Samples;Min_cycle;Max_cycle;Signal;HPM_P1;HPM_P2
2020/12/27 00:00:41;;;;;;;1.35;0.90;;;14.60;65.60;;;;;;5072109;28;20032;-59
2020/12/27 00:03:06;;;;;;;1.30;1.20;;;14.50;65.50;;;;;;5072187;28;20021;-59
2020/12/27 00:05:33;;;;;;;1.17;0.98;;;14.50;65.60;;;;;;5054026;28;20017;-59
2020/12/27 00:07:59;;;;;;;1.38;1.27;;;14.50;65.40;;;;;;5053719;28;20029;-59
2020/12/27 00:10:25;;;;;;;1.25;1.15;;;14.50;65.40;;;;;;5072010;28;20111;-58
2020/12/27 00:12:51;;;;;;;2.65;1.15;;;14.60;65.50;;;;;;5072051;28;20021;-58
2020/12/27 00:15:16;;;;;;;1.17;0.93;;;14.50;65.60;;;;;;5071943;28;20021;-59
2020/12/27 00:17:43;;;;;;;1.42;1.00;;;14.50;65.50;;;;;;5071877;28;20051;-59
2020/12/27 00:20:09;;;;;;;1.30;1.20;;;14.50;65.50;;;;;;5072188;28;20028;-57
2020/12/27 00:22:34;;;;;;;3.08;1.10;;;14.50;65.50;;;;;;5071936;28;20024;-57
2020/12/27 00:25:00;;;;;;;2.08;0.90;;;14.40;65.40;;;;;;5053744;28;20482;-58
2020/12/27 00:27:26;;;;;;;1.42;1.25;;;14.40;65.40;;;;;;5071837;28;20378;-58
2020/12/27 00:29:51;;;;;;;1.33;1.02;;;14.50;65.60;;;;;;5071817;28;20021;-58
2020/12/27 00:32:17;;;;;;;1.67;1.33;;;14.40;65.50;;;;;;5071732;28;20032;-58
2020/12/27 00:34:42;;;;;;;1.98;1.10;;;14.40;65.50;;;;;;5071765;28;20052;-59
2020/12/27 00:37:08;;;;;;;1.08;1.08;;;14.40;65.40;;;;;;5053729;28;20067;-58
2020/12/27 00:39:34;;;;;;;1.45;1.30;;;14.40;65.50;;;;;;5067455;28;20061;-58
2020/12/27 00:42:00;;;;;;;1.42;0.90;;;14.40;65.40;;;;;;5069185;28;20021;-58
2020/12/27 00:44:27;;;;;;;1.33;1.20;;;14.40;65.40;;;;;;5071568;28;20391;-58
2020/12/27 00:46:52;;;;;;;1.77;1.13;;;14.40;65.40;;;;;;5053599;28;20112;-59
2020/12/27 00:49:19;;;;;;;1.48;1.02;;;14.40;65.40;;;;;;5071673;28;20443;-58
2020/12/27 00:51:45;;;;;;;1.48;1.13;;;14.40;65.40;;;;;;5071585;28;20105;-59
2020/12/27 00:54:11;;;;;;;1.20;1.10;;;14.40;65.30;;;;;;5071490;28;20108;-58
2020/12/27 00:56:36;;;;;;;1.15;1.00;;;14.30;65.30;;;;;;5071501;28;20020;-58
2020/12/27 00:59:02;;;;;;;2.63;1.20;;;14.30;65.30;;;;;;5071496;28;20048;-58
2020/12/27 01:01:28;;;;;;;3.45;1.50;;;14.30;66.00;;;;;;5071466;28;20048;-58
2020/12/27 01:03:53;;;;;;;1.30;1.20;;;14.30;65.20;;;;;;5071495;28;20020;-59
2020/12/27 01:06:26;;;;;;;1.20;1.10;;;14.30;65.20;;;;;;5071465;28;20024;-59
2020/12/27 01:08:57;;;;;;;2.00;1.30;;;14.30;65.20;;;;;;5071521;28;20036;-58
2020/12/27 01:11:22;;;;;;;1.48;1.38;;;14.30;65.20;;;;;;5071483;28;20017;-57
2020/12/27 01:13:48;;;;;;;1.17;1.08;;;14.30;65.20;;;;;;5071431;28;20494;-58
2020/12/27 01:16:19;;;;;;;1.63;1.00;;;14.30;65.20;;;;;;5071372;28;20108;-58
2020/12/27 01:18:45;;;;;;;1.02;0.93;;;14.20;65.10;;;;;;5071255;28;20024;-58
2020/12/27 01:21:11;;;;;;;2.17;1.17;;;14.20;65.90;;;;;;5073426;28;20035;-57
2020/12/27 01:23:37;;;;;;;1.33;1.20;;;14.20;65.20;;;;;;5075180;28;20028;-58
2020/12/27 01:26:03;;;;;;;1.10;0.98;;;14.20;65.20;;;;;;5075088;28;20024;-59
2020/12/27 01:28:28;;;;;;;1.60;1.20;;;14.20;65.20;;;;;;5074993;28;20044;-59
2020/12/27 01:30:54;;;;;;;2.05;1.15;;;14.20;65.20;;;;;;5075077;28;20035;-59
2020/12/27 01:33:19;;;;;;;1.42;1.00;;;14.10;65.10;;;;;;5074923;28;20111;-58
2020/12/27 01:35:46;;;;;;;0.95;0.90;;;14.20;65.10;;;;;;5056959;28;20077;-57
2020/12/27 01:38:15;;;;;;;1.45;1.13;;;14.20;65.10;;;;;;5074851;28;20111;-58
2020/12/27 01:40:40;;;;;;;1.20;1.10;;;14.10;65.10;;;;;;5075714;28;20106;-58
2020/12/27 01:43:06;;;;;;;1.40;1.30;;;14.10;65.10;;;;;;5074750;28;20029;-58
2020/12/27 01:45:32;;;;;;;2.03;1.40;;;14.20;65.10;;;;;;5074780;28;20095;-59
2020/12/27 01:47:58;;;;;;;1.10;1.00;;;14.20;65.10;;;;;;5074806;28;20036;-59
2020/12/27 01:50:24;;;;;;;1.20;1.10;;;14.10;65.70;;;;;;5074712;28;20020;-58
2020/12/27 01:52:50;;;;;;;1.45;1.27;;;14.10;65.60;;;;;;5074763;28;20447;-59
2020/12/27 01:55:16;;;;;;;2.10;1.45;;;14.10;65.00;;;;;;5074606;28;20107;-59
2020/12/27 01:58:16;;;;;;;1.65;1.52;;;14.10;65.00;;;;;;5074573;28;20024;-59
2020/12/27 02:00:43;;;;;;;1.55;1.45;;;14.10;65.00;;;;;;5074512;28;20103;-58
2020/12/27 02:03:09;;;;;;;1.98;1.20;;;14.10;65.00;;;;;;5056375;28;20425;-58
2020/12/27 02:05:35;;;;;;;1.63;1.35;;;14.10;65.00;;;;;;5074391;28;20105;-58
2020/12/27 02:08:01;;;;;;;1.15;1.02;;;14.00;65.00;;;;;;5074447;28;20104;-57
2020/12/27 02:10:28;;;;;;;2.03;1.30;;;14.10;65.00;;;;;;5074385;28;20024;-59
2020/12/27 02:12:54;;;;;;;1.70;1.40;;;14.10;65.00;;;;;;5074360;28;20071;-57
2020/12/27 02:15:19;;;;;;;1.00;1.00;;;14.10;64.90;;;;;;5056221;28;20382;-58
2020/12/27 02:17:45;;;;;;;1.17;1.08;;;14.10;64.90;;;;;;5074111;28;20032;-57
2020/12/27 02:20:10;;;;;;;1.55;1.20;;;14.00;64.80;;;;;;5074248;28;20044;-57
2020/12/27 02:22:36;;;;;;;1.50;1.30;;;14.00;64.80;;;;;;5074105;28;20012;-59
2020/12/27 02:25:02;;;;;;;2.25;1.30;;;14.30;64.90;;;;;;5074142;28;20100;-59
2020/12/27 02:27:32;;;;;;;2.03;1.20;;;14.10;64.80;;;;;;5074126;28;20074;-58
2020/12/27 02:29:57;;;;;;;1.35;1.20;;;14.00;64.80;;;;;;5056324;28;20021;-58
2020/12/27 02:32:23;;;;;;;1.52;1.33;;;14.10;64.80;;;;;;5073631;28;20024;-58
2020/12/27 02:34:49;;;;;;;1.40;1.30;;;14.00;64.80;;;;;;5073941;28;20522;-59
2020/12/27 02:37:14;;;;;;;2.05;1.50;;;14.00;64.80;;;;;;5055933;28;20031;-58
2020/12/27 02:39:40;;;;;;;1.10;1.00;;;14.00;64.80;;;;;;5074871;28;20080;-58
2020/12/27 02:42:05;;;;;;;2.53;1.30;;;14.00;64.80;;;;;;5073845;28;20028;-59
2020/12/27 02:44:59;;;;;;;1.63;1.27;;;14.00;64.70;;;;;;5055868;28;20482;-57
2020/12/27 02:47:25;;;;;;;1.35;1.13;;;14.00;64.70;;;;;;5073988;28;20035;-59
2020/12/27 02:49:50;;;;;;;1.30;1.20;;;14.00;64.80;;;;;;5073709;28;20108;-58
2020/12/27 02:52:16;;;;;;;2.15;1.20;;;13.90;64.60;;;;;;5073567;28;20047;-58
2020/12/27 02:54:42;;;;;;;1.65;1.15;;;13.90;64.60;;;;;;5073895;28;20066;-58
2020/12/27 02:57:07;;;;;;;3.08;1.20;;;13.90;64.60;;;;;;5073519;28;20667;-58
2020/12/27 02:59:33;;;;;;;1.10;1.00;;;13.90;64.70;;;;;;5073407;28;20422;-58
2020/12/27 03:01:59;;;;;;;1.52;1.00;;;13.90;64.60;;;;;;5073337;28;20074;-58
2020/12/27 03:04:24;;;;;;;2.40;1.58;;;13.90;64.60;;;;;;5073268;28;20056;-59
2020/12/27 03:06:50;;;;;;;1.20;1.10;;;13.90;64.60;;;;;;5055243;28;20024;-58
2020/12/27 03:09:15;;;;;;;1.30;1.20;;;13.90;64.60;;;;;;5055329;28;20032;-58
2020/12/27 03:11:41;;;;;;;1.48;1.10;;;13.90;64.60;;;;;;5073174;28;20107;-57
2020/12/27 03:14:08;;;;;;;2.13;1.60;;;13.90;64.60;;;;;;5073146;28;20103;-58
2020/12/27 03:16:34;;;;;;;1.67;1.05;;;13.90;64.60;;;;;;5073017;28;20013;-58
2020/12/27 03:18:59;;;;;;;1.30;1.08;;;13.80;64.60;;;;;;5072890;28;20089;-58
2020/12/27 03:21:25;;;;;;;1.10;1.00;;;13.90;64.60;;;;;;5072974;28;20028;-57
2020/12/27 03:23:50;;;;;;;1.10;0.88;;;13.80;64.50;;;;;;5055029;28;20044;-58
2020/12/27 03:26:18;;;;;;;1.17;1.00;;;13.90;64.60;;;;;;5054868;28;20623;-58
2020/12/27 03:28:43;;;;;;;1.17;1.08;;;13.80;64.60;;;;;;5054863;28;20029;-58
2020/12/27 03:31:09;;;;;;;1.88;1.27;;;13.80;64.60;;;;;;5072725;28;20028;-59
2020/12/27 03:33:34;;;;;;;1.60;1.38;;;13.80;64.50;;;;;;5072659;28;20020;-57
2020/12/27 03:36:00;;;;;;;1.17;1.08;;;13.80;64.50;;;;;;5054759;28;20413;-58
2020/12/27 03:38:26;;;;;;;2.42;1.60;;;13.80;64.50;;;;;;5072555;28;20047;-57
2020/12/27 03:40:51;;;;;;;1.08;1.05;;;13.80;64.50;;;;;;5073130;28;20068;-58
2020/12/27 03:43:17;;;;;;;1.35;1.00;;;13.80;64.60;;;;;;5071862;28;20482;-58
2020/12/27 03:45:42;;;;;;;2.22;1.30;;;13.80;64.60;;;;;;5054622;28;20104;-58
2020/12/27 03:48:15;;;;;;;1.10;1.00;;;13.80;64.60;;;;;;5072421;28;20024;-58
2020/12/27 03:50:41;;;;;;;1.33;1.20;;;13.80;64.50;;;;;;5072428;28;20118;-58
2020/12/27 03:53:06;;;;;;;2.58;1.40;;;13.80;64.50;;;;;;5072317;28;20048;-57
2020/12/27 03:55:32;;;;;;;1.65;1.35;;;13.70;64.50;;;;;;5072374;28;20032;-58
2020/12/27 03:57:58;;;;;;;1.33;1.20;;;13.80;64.50;;;;;;5054378;28;20060;-57
2020/12/27 04:00:24;;;;;;;1.30;1.20;;;13.70;64.50;;;;;;5072257;28;20021;-58
2020/12/27 04:02:50;;;;;;;1.13;1.02;;;13.80;64.50;;;;;;5072322;28;20024;-57
2020/12/27 04:05:16;;;;;;;1.30;1.20;;;13.70;64.50;;;;;;5054165;28;20036;-58
2020/12/27 04:07:41;;;;;;;1.77;1.10;;;13.70;64.50;;;;;;5054161;28;20024;-58
2020/12/27 04:10:09;;;;;;;1.10;0.82;;;13.70;64.50;;;;;;5072189;28;20487;-57
2020/12/27 04:12:34;;;;;;;1.15;1.05;;;13.70;64.50;;;;;;5071992;28;20059;-58
2020/12/27 04:15:00;;;;;;;2.05;1.10;;;13.70;64.50;;;;;;5054165;28;20056;-57
2020/12/27 04:17:26;;;;;;;1.30;1.20;;;13.70;64.60;;;;;;5054111;28;20020;-58
2020/12/27 04:19:51;;;;;;;1.55;1.30;;;13.70;64.50;;;;;;5071956;28;20029;-57
2020/12/27 04:22:17;;;;;;;1.45;1.10;;;13.70;64.50;;;;;;5053978;28;20040;-58
2020/12/27 04:24:42;;;;;;;0.80;0.80;;;13.70;64.50;;;;;;5071900;28;20073;-58
2020/12/27 04:27:08;;;;;;;1.02;0.95;;;13.70;64.50;;;;;;5071967;28;20035;-58
2020/12/27 04:29:34;;;;;;;1.20;1.10;;;13.70;64.40;;;;;;5072153;28;20016;-60
2020/12/27 04:31:59;;;;;;;1.20;0.95;;;13.70;64.50;;;;;;5053881;28;20529;-58
2020/12/27 04:34:25;;;;;;;1.05;0.90;;;13.70;64.50;;;;;;5071885;28;20402;-58
2020/12/27 04:36:50;;;;;;;0.90;0.82;;;13.70;64.50;;;;;;5071813;28;20170;-58
2020/12/27 04:39:16;;;;;;;0.70;0.70;;;13.60;64.40;;;;;;5071727;28;20119;-58
2020/12/27 04:41:43;;;;;;;2.90;1.10;;;13.60;64.50;;;;;;5072740;28;20048;-58
2020/12/27 04:44:08;;;;;;;1.05;1.05;;;13.70;64.50;;;;;;5071853;28;20047;-57
2020/12/27 04:46:34;;;;;;;0.93;0.80;;;13.60;64.40;;;;;;5071804;28;20020;-58
2020/12/27 04:49:01;;;;;;;1.00;0.80;;;13.60;64.40;;;;;;5072117;28;20021;-59
2020/12/27 04:51:28;;;;;;;1.10;0.77;;;13.60;64.50;;;;;;5071772;28;20183;-59
2020/12/27 04:53:56;;;;;;;0.90;0.80;;;13.60;64.50;;;;;;5071776;28;20031;-58
2020/12/27 04:56:24;;;;;;;1.02;0.90;;;13.60;64.40;;;;;;5076272;28;20031;-59
2020/12/27 04:58:51;;;;;;;1.00;0.90;;;13.60;64.40;;;;;;5075754;28;20033;-60
2020/12/27 05:01:17;;;;;;;1.08;0.70;;;13.60;64.50;;;;;;5075820;28;20082;-59
2020/12/27 05:03:42;;;;;;;0.88;0.73;;;13.60;64.40;;;;;;5075777;28;20024;-59
2020/12/27 05:06:15;;;;;;;0.60;0.60;;;13.60;64.50;;;;;;5075748;28;20479;-60
2020/12/27 05:08:43;;;;;;;0.73;0.65;;;13.60;64.80;;;;;;5075889;28;20040;-59
2020/12/27 05:11:10;;;;;;;0.73;0.73;;;13.70;64.90;;;;;;5075664;28;20047;-58
2020/12/27 05:13:36;;;;;;;1.23;1.13;;;13.70;64.60;;;;;;5075424;28;20075;-59
2020/12/27 05:16:05;;;;;;;1.77;0.90;;;13.80;65.10;;;;;;5075427;28;20021;-58
2020/12/27 05:18:31;;;;;;;1.13;0.65;;;13.80;65.30;;;;;;5057225;28;20029;-58
2020/12/27 05:20:56;;;;;;;0.77;0.77;;;13.90;65.40;;;;;;5075231;28;20108;-57
2020/12/27 05:23:26;;;;;;;1.35;0.73;;;13.90;65.00;;;;;;5074995;28;20017;-57
2020/12/27 05:26:00;;;;;;;0.80;0.60;;;13.90;65.10;;;;;;5074912;28;20021;-57
2020/12/27 05:28:26;;;;;;;1.08;0.70;;;13.90;64.80;;;;;;5074933;28;20686;-57
2020/12/27 05:30:52;;;;;;;0.50;0.50;;;13.90;64.90;;;;;;5074854;28;20020;-57
2020/12/27 05:33:18;;;;;;;2.22;0.75;;;13.90;64.90;;;;;;5075028;28;20489;-58
2020/12/27 05:35:44;;;;;;;0.52;0.52;;;13.90;65.00;;;;;;5074977;28;20029;-57
2020/12/27 05:38:10;;;;;;;0.70;0.70;;;13.80;64.90;;;;;;5074784;28;20033;-57
2020/12/27 05:40:38;;;;;;;0.80;0.70;;;13.80;64.80;;;;;;5075707;27;20052;-57
2020/12/27 05:43:15;;;;;;;0.50;0.50;;;13.80;64.70;;;;;;5056782;28;20441;-58
2020/12/27 05:45:41;;;;;;;0.60;0.60;;;13.80;64.80;;;;;;5074901;28;20027;-57
2020/12/27 05:48:08;;;;;;;1.42;0.77;;;13.70;64.70;;;;;;5056880;28;20470;-58
2020/12/27 05:50:38;;;;;;;0.68;0.60;;;13.70;64.70;;;;;;5074982;28;20111;-58
2020/12/27 05:53:18;;;;;;;1.23;0.90;;;13.80;64.80;;;;;;5075037;28;20021;-59
2020/12/27 05:55:46;;;;;;;1.27;0.95;;;13.70;64.70;;;;;;5074744;28;20013;-58
2020/12/27 05:58:23;;;;;;;1.35;0.80;;;13.70;64.50;;;;;;5074546;28;20024;-58
2020/12/27 06:00:52;;;;;;;0.82;0.82;;;13.70;64.50;;;;;;5074611;28;20028;-58
2020/12/27 06:03:22;;;;;;;0.60;0.60;;;13.70;64.50;;;;;;5074572;28;20021;-59
2020/12/27 06:05:54;;;;;;;0.70;0.70;;;13.60;64.50;;;;;;5073892;28;20108;-58
2020/12/27 06:08:29;;;;;;;0.55;0.50;;;13.70;64.90;;;;;;5074375;28;20025;-58
2020/12/27 06:10:59;;;;;;;0.60;0.60;;;13.70;65.00;;;;;;5056497;28;20562;-58
2020/12/27 06:14:02;;;;;;;0.60;0.45;;;13.80;64.90;;;;;;5056310;28;20024;-58
2020/12/27 06:16:50;;;;;;;1.10;0.60;;;13.90;64.80;;;;;;5074288;28;20029;-58
2020/12/27 06:19:15;;;;;;;0.40;0.40;;;13.90;64.80;;;;;;5074185;28;20086;-58
2020/12/27 06:21:41;;;;;;;0.65;0.40;;;14.10;65.10;;;;;;5074167;28;20103;-58
2020/12/27 06:24:14;;;;;;;0.50;0.40;;;14.10;64.70;;;;;;5074420;28;20022;-59
2020/12/27 06:26:40;;;;;;;0.80;0.47;;;14.20;64.70;;;;;;5074100;28;20099;-58
2020/12/27 06:29:06;;;;;;;0.82;0.50;;;14.30;64.90;;;;;;5073985;28;20021;-58
2020/12/27 06:31:34;;;;;;;0.50;0.50;;;14.30;65.00;;;;;;5056064;28;20032;-58
2020/12/27 06:33:59;;;;;;;0.45;0.40;;;14.40;65.40;;;;;;5056015;28;20029;-59
2020/12/27 06:36:32;;;;;;;0.73;0.50;;;14.40;64.70;;;;;;5056069;28;20028;-58
2020/12/27 06:38:58;;;;;;;0.38;0.30;;;14.50;64.80;;;;;;5073971;28;20075;-57
2020/12/27 06:41:24;;;;;;;0.93;0.50;;;14.50;64.80;;;;;;5075076;27;20080;-58
2020/12/27 06:43:49;;;;;;;1.48;0.40;;;14.60;64.90;;;;;;5055903;28;20024;-57
2020/12/27 06:46:26;;;;;;;0.43;0.40;;;14.60;64.80;;;;;;5073724;28;20052;-58
2020/12/27 06:49:09;;;;;;;1.77;0.30;;;14.70;64.70;;;;;;5073787;28;20039;-58
2020/12/27 06:51:42;;;;;;;0.25;0.25;;;14.70;64.60;;;;;;5073711;28;20378;-58
2020/12/27 06:54:09;;;;;;;0.30;0.30;;;14.70;64.60;;;;;;5073697;28;20028;-59
2020/12/27 06:56:42;;;;;;;0.77;0.30;;;14.80;64.70;;;;;;5073526;28;20017;-58
2020/12/27 06:59:08;;;;;;;0.90;0.30;;;14.80;64.70;;;;;;5073548;28;20111;-58
2020/12/27 07:01:34;;;;;;;0.40;0.40;;;14.80;64.60;;;;;;5073517;28;20031;-59
2020/12/27 07:04:18;;;;;;;1.33;0.77;;;14.80;64.40;;;;;;5073742;28;20052;-59
2020/12/27 07:06:48;;;;;;;0.57;0.50;;;14.80;64.40;;;;;;5073382;28;20043;-58
2020/12/27 07:09:26;;;;;;;0.20;0.20;;;14.80;64.30;;;;;;5073559;28;20038;-59
2020/12/27 07:12:06;;;;;;;0.30;0.30;;;14.80;64.20;;;;;;5073295;28;20024;-58
2020/12/27 07:14:39;;;;;;;0.30;0.30;;;14.80;64.20;;;;;;5073246;28;20116;-59
2020/12/27 07:17:06;;;;;;;0.40;0.40;;;14.80;64.10;;;;;;5073125;28;20023;-59
2020/12/27 07:19:34;;;;;;;0.47;0.30;;;14.80;64.00;;;;;;5072392;28;20028;-57
2020/12/27 07:22:04;;;;;;;0.30;0.30;;;14.80;64.10;;;;;;5073075;28;20103;-58
2020/12/27 07:24:34;;;;;;;0.50;0.30;;;14.80;64.00;;;;;;5073290;28;20469;-58
2020/12/27 07:27:02;;;;;;;0.30;0.25;;;14.80;63.90;;;;;;5072884;28;20016;-58
2020/12/27 07:29:28;;;;;;;0.30;0.25;;;14.80;64.00;;;;;;5072879;28;20448;-59
2020/12/27 07:31:55;;;;;;;0.57;0.40;;;14.90;64.00;;;;;;5072694;28;20063;-58
2020/12/27 07:34:26;;;;;;;0.35;0.32;;;14.80;63.90;;;;;;5072783;28;20048;-57
2020/12/27 07:37:08;;;;;;;0.43;0.28;;;14.80;63.90;;;;;;5072811;28;20080;-57
2020/12/27 07:39:57;;;;;;;0.65;0.30;;;14.80;63.80;;;;;;5072706;28;20045;-59
2020/12/27 07:42:25;;;;;;;0.35;0.30;;;14.80;63.70;;;;;;5060055;28;20407;-56
2020/12/27 07:44:52;;;;;;;0.20;0.20;;;14.80;63.70;;;;;;5054616;28;20056;-57
2020/12/27 07:47:18;;;;;;;0.40;0.32;;;14.80;63.50;;;;;;5072544;28;20026;-57
2020/12/27 07:49:59;;;;;;;0.20;0.20;;;14.80;64.10;;;;;;5072520;28;20016;-57
2020/12/27 07:52:43;;;;;;;0.60;0.30;;;14.80;63.80;;;;;;5072507;28;20024;-57
2020/12/27 07:55:08;;;;;;;1.80;0.50;;;14.80;63.90;;;;;;5072484;28;20020;-57
2020/12/27 07:57:35;;;;;;;0.35;0.35;;;14.80;64.00;;;;;;5072465;28;20373;-57
2020/12/27 08:00:06;;;;;;;0.35;0.20;;;14.80;64.00;;;;;;5072361;28;20393;-57
2020/12/27 08:02:32;;;;;;;1.27;0.30;;;14.80;64.00;;;;;;5072448;28;20052;-57
2020/12/27 08:05:01;;;;;;;1.65;0.45;;;14.80;64.00;;;;;;5072287;28;20056;-56
2020/12/27 08:07:27;;;;;;;0.68;0.30;;;14.80;64.00;;;;;;5054419;28;20036;-59
2020/12/27 08:09:52;;;;;;;0.20;0.20;;;14.80;64.00;;;;;;5072161;28;20020;-58
2020/12/27 08:12:18;;;;;;;0.50;0.20;;;14.80;64.00;;;;;;5072169;28;20058;-57
2020/12/27 08:14:44;;;;;;;0.57;0.20;;;14.80;64.00;;;;;;5072163;28;20039;-57
2020/12/27 08:17:16;;;;;;;0.20;0.20;;;14.80;64.00;;;;;;5072228;28;20033;-58
2020/12/27 08:19:44;;;;;;;0.20;0.20;;;14.80;64.00;;;;;;5071998;28;20394;-57
2020/12/27 08:22:10;;;;;;;0.20;0.20;;;14.80;64.00;;;;;;5072068;28;20020;-57
2020/12/27 08:24:35;;;;;;;0.28;0.20;;;14.90;64.00;;;;;;5071998;28;20024;-57
2020/12/27 08:27:01;;;;;;;0.40;0.40;;;14.80;63.90;;;;;;5053922;28;20111;-58
2020/12/27 08:29:27;;;;;;;0.43;0.30;;;14.80;63.90;;;;;;5071639;28;20020;-57
2020/12/27 08:31:54;;;;;;;0.50;0.30;;;14.80;63.80;;;;;;5071910;28;20035;-56
2020/12/27 08:34:25;;;;;;;0.40;0.20;;;14.80;63.70;;;;;;5072108;28;20021;-57
2020/12/27 08:36:55;;;;;;;0.40;0.22;;;14.80;63.70;;;;;;5072037;28;20036;-57
2020/12/27 08:39:32;;;;;;;0.52;0.30;;;14.80;63.70;;;;;;5053881;28;20040;-57
2020/12/27 08:42:38;;;;;;;0.35;0.20;;;14.80;63.60;;;;;;5073243;28;20075;-57
2020/12/27 08:45:12;;;;;;;0.43;0.22;;;14.80;63.80;;;;;;5071579;28;20032;-56
2020/12/27 08:47:53;;;;;;;0.60;0.30;;;14.80;63.60;;;;;;5071798;28;20021;-57
2020/12/27 08:50:19;;;;;;;0.73;0.52;;;14.80;63.50;;;;;;5071739;28;20024;-58
2020/12/27 08:52:50;;;;;;;0.25;0.25;;;14.80;63.40;;;;;;5071806;28;20028;-57
2020/12/27 08:55:23;;;;;;;0.40;0.20;;;14.80;63.20;;;;;;5053716;28;20025;-57
2020/12/27 08:57:49;;;;;;;2.47;0.45;;;14.90;63.40;;;;;;5071749;28;20425;-56
2020/12/27 09:00:15;;;;;;;3.42;0.40;;;14.90;63.80;;;;;;5071529;28;20037;-54
2020/12/27 09:02:41;;;;;;;2.00;0.30;;;14.90;63.80;;;;;;5071582;28;20017;-55
2020/12/27 09:05:10;;;;;;;1.33;0.60;;;14.90;64.00;;;;;;5071421;28;20038;-56
2020/12/27 09:07:44;;;;;;;2.47;0.50;;;14.90;63.80;;;;;;5071753;28;20078;-56
2020/12/27 09:10:11;;;;;;;4.07;0.73;;;14.90;63.80;;;;;;5071517;28;20025;-56
2020/12/27 09:12:54;;;;;;;4.00;0.77;;;14.90;63.60;;;;;;5071479;28;20111;-55
2020/12/27 09:15:26;;;;;;;1.58;0.40;;;15.00;63.40;;;;;;5071437;28;20039;-57
2020/12/27 09:17:58;;;;;;;2.38;0.60;;;15.20;63.10;;;;;;5053404;28;20060;-56
2020/12/27 09:20:24;;;;;;;7.07;0.50;;;15.30;62.60;;;;;;5071409;28;20037;-56
2020/12/27 09:22:51;;;;;;;4.00;0.45;;;15.40;62.10;;;;;;5053386;28;20087;-55
2020/12/27 09:25:19;;;;;;;3.08;0.50;;;15.50;62.10;;;;;;5071363;28;20055;-56
2020/12/27 09:27:46;;;;;;;5.45;0.60;;;15.60;62.30;;;;;;5071415;28;20020;-55
2020/12/27 09:30:20;;;;;;;4.05;0.65;;;15.60;62.60;;;;;;5071282;28;20033;-57
2020/12/27 09:32:46;;;;;;;6.25;0.60;;;15.60;62.90;;;;;;5071296;28;20495;-56
2020/12/27 09:35:21;;;;;;;2.50;0.98;;;15.70;62.80;;;;;;5071222;28;20021;-57
2020/12/27 09:37:48;;;;;;;3.22;0.60;;;15.70;62.80;;;;;;5053172;28;20025;-56
2020/12/27 09:40:24;;;;;;;6.85;0.95;;;15.70;63.10;;;;;;5072367;28;20060;-57
2020/12/27 09:43:03;;;;;;;2.38;0.55;;;15.70;63.30;;;;;;5056280;28;20024;-56
2020/12/27 09:45:29;;;;;;;4.28;0.98;;;15.70;63.40;;;;;;5074948;28;20104;-56
2020/12/27 09:48:02;;;;;;;4.65;1.00;;;15.70;63.40;;;;;;5074516;28;20473;-57
2020/12/27 09:50:36;;;;;;;3.28;1.00;;;15.70;63.10;;;;;;5074783;28;20039;-56
2020/12/27 09:53:03;;;;;;;4.85;1.13;;;15.70;63.10;;;;;;5074713;28;20020;-57
2020/12/27 09:55:30;;;;;;;1.55;0.57;;;15.80;63.10;;;;;;5074693;28;20029;-56
2020/12/27 09:57:56;;;;;;;2.22;0.70;;;15.80;62.80;;;;;;5074597;28;20086;-56
2020/12/27 10:00:21;;;;;;;3.20;0.90;;;15.80;62.70;;;;;;5074733;28;20478;-57
2020/12/27 10:02:47;;;;;;;3.10;0.68;;;15.80;62.60;;;;;;5074552;28;20032;-56
2020/12/27 10:05:13;;;;;;;3.15;0.77;;;15.80;62.40;;;;;;5074311;28;20032;-57
2020/12/27 10:07:40;;;;;;;0.70;0.47;;;15.90;62.10;;;;;;5074427;28;20053;-56
2020/12/27 10:10:07;;;;;;;2.35;0.68;;;15.90;61.80;;;;;;5056366;28;20553;-57
2020/12/27 10:12:33;;;;;;;2.05;0.63;;;16.00;61.70;;;;;;5040190;28;20382;-57
2020/12/27 10:14:59;;;;;;;2.83;0.65;;;16.00;61.40;;;;;;5074674;28;20017;-56
2020/12/27 10:17:25;;;;;;;1.30;0.75;;;16.10;61.40;;;;;;5056334;28;20360;-55
2020/12/27 10:19:50;;;;;;;0.85;0.40;;;16.20;61.20;;;;;;5074251;28;20064;-56
2020/12/27 10:22:17;;;;;;;2.47;0.80;;;16.20;61.50;;;;;;5074536;28;20017;-57
2020/12/27 10:24:42;;;;;;;1.83;0.50;;;16.30;61.20;;;;;;5074209;28;20078;-56
2020/12/27 10:27:08;;;;;;;1.02;0.40;;;16.40;60.30;;;;;;5074027;28;20041;-56
2020/12/27 10:29:35;;;;;;;0.77;0.57;;;16.40;59.90;;;;;;5056073;28;20024;-56
2020/12/27 10:32:02;;;;;;;2.38;0.45;;;16.40;59.80;;;;;;5074029;28;20074;-56
2020/12/27 10:34:28;;;;;;;1.00;0.57;;;16.40;59.80;;;;;;5073762;28;20029;-56
2020/12/27 10:36:56;;;;;;;0.73;0.40;;;16.50;59.70;;;;;;5073835;28;20021;-55
2020/12/27 10:39:22;;;;;;;2.13;0.40;;;16.60;59.40;;;;;;5055807;28;20517;-56
2020/12/27 10:41:49;;;;;;;0.55;0.40;;;16.60;59.10;;;;;;5075048;27;20064;-57
2020/12/27 10:44:15;;;;;;;0.73;0.30;;;16.50;59.10;;;;;;5073738;28;20382;-56
2020/12/27 10:46:41;;;;;;;1.30;0.40;;;16.50;58.90;;;;;;5073745;28;20456;-56
2020/12/27 10:49:07;;;;;;;2.50;0.30;;;16.50;59.10;;;;;;5073731;28;20052;-57
2020/12/27 10:51:39;;;;;;;2.60;0.73;;;16.50;59.10;;;;;;5073663;28;20062;-56
2020/12/27 10:54:06;;;;;;;2.83;0.40;;;16.50;59.60;;;;;;5073522;28;20029;-57
2020/12/27 10:56:32;;;;;;;1.30;0.40;;;16.50;59.80;;;;;;5073639;28;20013;-55
2020/12/27 10:58:58;;;;;;;0.90;0.30;;;16.50;59.80;;;;;;5073404;28;20102;-59
2020/12/27 11:01:23;;;;;;;2.58;0.40;;;16.60;59.80;;;;;;5073407;28;20024;-58
2020/12/27 11:03:49;;;;;;;0.95;0.40;;;16.60;59.80;;;;;;5055327;28;20024;-59
2020/12/27 11:06:15;;;;;;;0.75;0.32;;;16.60;59.70;;;;;;5073375;28;20028;-58
2020/12/27 11:08:41;;;;;;;0.60;0.30;;;16.60;59.60;;;;;;5055275;28;20074;-58
2020/12/27 11:11:06;;;;;;;0.28;0.25;;;16.70;59.50;;;;;;5073176;28;20029;-58
2020/12/27 11:13:32;;;;;;;1.73;0.30;;;16.70;59.50;;;;;;5055320;28;20157;-58
2020/12/27 11:15:58;;;;;;;0.98;0.45;;;16.70;59.40;;;;;;5055191;28;20416;-58
2020/12/27 11:18:23;;;;;;;0.75;0.30;;;16.80;59.30;;;;;;5054997;28;20031;-58
2020/12/27 11:20:49;;;;;;;1.40;0.30;;;16.80;59.20;;;;;;5072964;28;20024;-58
2020/12/27 11:23:14;;;;;;;2.30;0.40;;;16.80;59.10;;;;;;5072937;28;20541;-58
2020/12/27 11:25:40;;;;;;;0.50;0.40;;;16.90;58.90;;;;;;5072751;28;20083;-56
2020/12/27 11:28:06;;;;;;;0.32;0.32;;;16.90;58.70;;;;;;5072882;28;20052;-57
2020/12/27 11:30:31;;;;;;;1.15;0.30;;;17.00;58.70;;;;;;5072880;28;20099;-59
2020/12/27 11:32:57;;;;;;;1.77;0.43;;;16.90;58.60;;;;;;5054709;28;20020;-60
2020/12/27 11:35:23;;;;;;;0.50;0.50;;;16.90;58.60;;;;;;5072628;28;20028;-55
2020/12/27 11:37:51;;;;;;;0.40;0.40;;;16.90;58.50;;;;;;5072762;28;20020;-59
2020/12/27 11:40:17;;;;;;;0.40;0.40;;;17.00;58.30;;;;;;5074061;28;20055;-58
2020/12/27 11:42:42;;;;;;;0.60;0.60;;;17.00;58.10;;;;;;5072725;28;20486;-58
2020/12/27 11:45:08;;;;;;;0.73;0.73;;;17.10;58.00;;;;;;5054599;28;20038;-59
2020/12/27 11:47:35;;;;;;;1.20;0.88;;;17.10;57.80;;;;;;5072568;28;20029;-59
2020/12/27 11:50:00;;;;;;;0.63;0.63;;;17.20;57.70;;;;;;5072456;28;20048;-59
2020/12/27 11:52:26;;;;;;;0.82;0.82;;;17.30;57.50;;;;;;5072382;28;20048;-57
2020/12/27 11:54:52;;;;;;;0.60;0.60;;;17.30;57.30;;;;;;5072474;28;20470;-56
2020/12/27 11:57:18;;;;;;;1.00;0.70;;;17.30;57.30;;;;;;5054436;28;20036;-59
2020/12/27 11:59:44;;;;;;;0.80;0.70;;;17.40;57.20;;;;;;5072323;28;20044;-58
2020/12/27 12:02:09;;;;;;;1.98;0.82;;;17.30;57.00;;;;;;5072323;28;20094;-58
2020/12/27 12:04:35;;;;;;;0.60;0.57;;;17.40;57.00;;;;;;5071622;28;20020;-58
2020/12/27 12:07:00;;;;;;;0.70;0.70;;;17.40;57.00;;;;;;5072238;28;20381;-59
2020/12/27 12:09:26;;;;;;;0.68;0.68;;;17.40;56.90;;;;;;5072188;28;20075;-58
2020/12/27 12:11:52;;;;;;;0.60;0.60;;;17.40;56.80;;;;;;5072200;28;20573;-58
2020/12/27 12:14:17;;;;;;;0.57;0.50;;;17.40;56.80;;;;;;5072144;28;20490;-57
2020/12/27 12:16:43;;;;;;;0.63;0.60;;;17.40;56.90;;;;;;5072221;28;20027;-58
2020/12/27 12:19:09;;;;;;;0.93;0.70;;;17.40;56.90;;;;;;5071881;28;20032;-58
2020/12/27 12:21:35;;;;;;;0.57;0.50;;;17.40;56.80;;;;;;5072112;28;20525;-58
2020/12/27 12:24:00;;;;;;;0.70;0.70;;;17.40;56.80;;;;;;5054144;28;20021;-59
2020/12/27 12:26:28;;;;;;;1.45;0.45;;;17.40;56.70;;;;;;5071895;28;20079;-58
2020/12/27 12:28:54;;;;;;;0.50;0.50;;;17.50;56.60;;;;;;5072048;28;20073;-59
2020/12/27 12:31:20;;;;;;;0.50;0.43;;;17.40;56.60;;;;;;5071951;28;20077;-59
2020/12/27 12:33:46;;;;;;;1.65;0.50;;;17.40;56.60;;;;;;5054319;28;20036;-57
2020/12/27 12:36:17;;;;;;;0.75;0.55;;;17.40;56.80;;;;;;5072079;28;20756;-58
2020/12/27 12:38:43;;;;;;;1.20;0.68;;;17.40;57.20;;;;;;5071909;28;20167;-57
2020/12/27 12:41:15;;;;;;;0.75;0.68;;;17.40;57.80;;;;;;5072573;28;20040;-57
2020/12/27 12:43:44;;;;;;;2.15;0.40;;;17.40;58.10;;;;;;5071763;28;20510;-57
2020/12/27 12:46:11;;;;;;;0.35;0.35;;;17.40;58.40;;;;;;5071751;28;20509;-58
2020/12/27 12:48:38;;;;;;;0.85;0.60;;;17.40;58.60;;;;;;5071823;28;20796;-59
2020/12/27 12:51:03;;;;;;;0.35;0.35;;;17.50;58.80;;;;;;5053890;28;20035;-58